createdAt,value
2022-10-01T00:02:13.346Z,100136.78
2022-10-01T00:04:45.664Z,100121.38
2022-10-01T00:07:15.497Z,100133.38
2022-10-01T00:09:45.264Z,100126.63
2022-10-01T00:12:16.890Z,100129.13
2022-10-01T00:14:46.605Z,100095.78
2022-10-01T00:17:16.422Z,100121.53
2022-10-01T00:19:48.699Z,100125.81
2022-10-01T00:22:19.065Z,100095.88
2022-10-01T00:24:49.472Z,100059.94
2022-10-01T00:27:19.346Z,100086.50
2022-10-01T00:29:49.256Z,100094.16
2022-10-01T00:32:18.988Z,100089.09
2022-10-01T00:34:52.132Z,100095.16
2022-10-01T00:37:22.294Z,100099.41
2022-10-01T00:39:51.980Z,100101.13
2022-10-01T00:42:25.525Z,100084.06
2022-10-01T00:44:56.492Z,100096.88
2022-10-01T00:47:31.784Z,100086.63
2022-10-01T00:50:11.874Z,100085.81
2022-10-01T00:52:43.976Z,100057.56
2022-10-01T00:55:18.842Z,100081.47
2022-10-01T00:57:48.879Z,100059.19
2022-10-01T01:00:19.294Z,100065.28
2022-10-01T01:02:49.428Z,100072.94
2022-10-01T01:05:22.187Z,100062.78
2022-10-01T01:07:55.492Z,99991.91
2022-10-01T01:10:32.676Z,100050.88
2022-10-01T01:13:15.568Z,100053.41
2022-10-01T01:15:53.891Z,100031.22
2022-10-01T01:18:30.196Z,100044.88
2022-10-01T01:21:17.890Z,100014.94
2022-10-01T01:24:23.219Z,100039.75
2022-10-01T01:27:10.030Z,100021.00
2022-10-01T01:29:49.649Z,100023.63
2022-10-01T01:32:25.858Z,100021.94
2022-10-01T01:35:02.291Z,100007.44
2022-10-01T01:37:36.708Z,100002.31
2022-10-01T01:40:11.833Z,100011.75
2022-10-01T01:42:45.781Z,99994.69
2022-10-01T01:45:23.672Z,99991.31
2022-10-01T01:47:57.629Z,99993.78
2022-10-01T01:50:28.974Z,99999.78
2022-10-01T01:52:59.820Z,99974.22
2022-10-01T01:55:32.114Z,99974.22
2022-10-01T01:58:02.145Z,99987.03
2022-10-01T02:00:34.993Z,99981.94
2022-10-01T02:03:04.808Z,99957.19
2022-10-01T02:05:44.970Z,99947.81
2022-10-01T02:08:28.814Z,99965.69
2022-10-01T02:11:15.164Z,99952.06
2022-10-01T02:13:52.942Z,99927.38
2022-10-01T02:16:32.978Z,99942.72
2022-10-01T02:19:08.295Z,99937.56
2022-10-01T02:21:43.614Z,99941.88
2022-10-01T02:24:22.018Z,99941.91
2022-10-01T02:26:54.521Z,99923.91
2022-10-01T02:29:26.560Z,99912.00
2022-10-01T02:32:00.087Z,99940.19
2022-10-01T02:34:33.074Z,99932.53
2022-10-01T02:37:07.597Z,99941.00
2022-10-01T02:39:41.513Z,99921.41
2022-10-01T02:42:12.921Z,99921.41
2022-10-01T02:44:46.256Z,99908.63
2022-10-01T02:47:22.747Z,99919.75
2022-10-01T02:49:53.388Z,99879.66
2022-10-01T02:52:30.108Z,99896.75
2022-10-01T02:55:02.982Z,99887.34
2022-10-01T02:57:30.362Z,99889.06
2022-10-01T03:00:01.810Z,99876.31
2022-10-01T03:02:34.863Z,99883.97
2022-10-01T03:05:05.038Z,99891.63
2022-10-01T03:07:36.685Z,99868.59
2022-10-01T03:10:07.503Z,99890.75
2022-10-01T03:12:37.550Z,99865.19
2022-10-01T03:15:07.958Z,99876.22
2022-10-01T03:17:40.252Z,99899.28
2022-10-01T03:20:12.082Z,99865.16
2022-10-01T03:22:41.828Z,99887.28
2022-10-01T03:25:12.273Z,99877.88
2022-10-01T03:27:42.006Z,99879.53
2022-10-01T03:30:13.133Z,99869.25
2022-10-01T03:32:45.509Z,99856.44
2022-10-01T03:35:15.199Z,99858.97
2022-10-01T03:37:44.913Z,99864.91
2022-10-01T03:40:14.604Z,99863.25
2022-10-01T03:42:44.285Z,99852.13
2022-10-01T03:45:14.101Z,99843.66
2022-10-01T03:47:46.381Z,99832.59
2022-10-01T03:50:16.205Z,99821.53
2022-10-01T03:52:46.368Z,99805.41
2022-10-01T03:55:16.182Z,99797.75
2022-10-01T03:57:45.873Z,99797.72
2022-10-01T04:00:16.313Z,99769.63
2022-10-01T04:02:48.675Z,99779.88
2022-10-01T04:05:18.466Z,99788.34
2022-10-01T04:07:48.594Z,99787.53
2022-10-01T04:10:18.487Z,99782.44
2022-10-01T04:12:48.141Z,99778.16
2022-10-01T04:15:18.104Z,99754.16
2022-10-01T04:17:50.429Z,99755.84
2022-10-01T04:20:20.511Z,99756.72
2022-10-01T04:22:50.231Z,99737.94
2022-10-01T04:25:19.980Z,99745.63
2022-10-01T04:27:58.760Z,99750.78
2022-10-01T04:30:30.122Z,99656.19
2022-10-01T04:33:02.804Z,99740.56
2022-10-01T04:35:32.718Z,99727.69
2022-10-01T04:38:03.818Z,99742.09
2022-10-01T04:40:34.189Z,99729.38
2022-10-01T04:43:04.019Z,99743.00
2022-10-01T04:45:34.600Z,99725.97
2022-10-01T04:48:07.876Z,99746.44
2022-10-01T04:50:37.540Z,99703.75
2022-10-01T04:53:07.200Z,99730.22
2022-10-01T04:55:36.934Z,99724.22
2022-10-01T04:58:06.755Z,99723.44
2022-10-01T05:00:36.574Z,99720.78
2022-10-01T05:03:08.930Z,99712.28
2022-10-01T05:05:39.002Z,99704.59
2022-10-01T05:08:08.727Z,99698.63
2022-10-01T05:10:38.426Z,99692.59
2022-10-01T05:13:08.465Z,99719.81
2022-10-01T05:15:39.352Z,99716.41
2022-10-01T05:18:11.696Z,99738.47
2022-10-01T05:20:41.408Z,99742.81
2022-10-01T05:23:11.161Z,99733.38
2022-10-01T05:25:40.814Z,99725.72
2022-10-01T05:28:16.012Z,99713.88
2022-10-01T05:30:49.682Z,99687.41
2022-10-01T05:33:22.093Z,99649.00
2022-10-01T05:35:52.099Z,99721.47
2022-10-01T05:38:22.167Z,99718.09
2022-10-01T05:40:52.288Z,99714.66
2022-10-01T05:43:23.094Z,99716.41
2022-10-01T05:45:52.910Z,99694.31
2022-10-01T05:48:26.325Z,99681.56
2022-10-01T05:50:57.228Z,99640.72
2022-10-01T05:53:27.555Z,99661.97
2022-10-01T05:55:57.382Z,99669.66
2022-10-01T05:58:28.178Z,99650.94
2022-10-01T06:00:59.480Z,99637.28
2022-10-01T06:03:33.129Z,99617.81
2022-10-01T06:06:05.466Z,99632.28
2022-10-01T06:08:37.106Z,99630.59
2022-10-01T06:11:07.574Z,99613.56
2022-10-01T06:13:38.808Z,99624.59
2022-10-01T06:16:09.035Z,99593.91
2022-10-01T06:18:42.539Z,99618.66
2022-10-01T06:21:13.004Z,99627.97
2022-10-01T06:23:44.465Z,99629.63
2022-10-01T06:26:14.229Z,99613.50
2022-10-01T06:28:44.030Z,99621.13
2022-10-01T06:31:14.849Z,99625.41
2022-10-01T06:33:47.432Z,99614.44
2022-10-01T06:36:18.324Z,99594.91
2022-10-01T06:38:51.768Z,99620.47
2022-10-01T06:41:21.506Z,99603.41
2022-10-01T06:43:51.835Z,99602.53
2022-10-01T06:46:22.726Z,99605.09
2022-10-01T06:48:56.139Z,99623.94
2022-10-01T06:51:55.128Z,99612.00
2022-10-01T06:54:22.284Z,99623.88
2022-10-01T06:56:53.041Z,99612.75
2022-10-01T06:59:24.099Z,99627.28
2022-10-01T07:01:56.358Z,99613.69
2022-10-01T07:04:33.784Z,99628.19
2022-10-01T07:07:03.608Z,99608.66
2022-10-01T07:09:34.415Z,99617.16
2022-10-01T07:12:05.230Z,99605.25
2022-10-01T07:14:35.981Z,99595.03
2022-10-01T07:17:05.804Z,99591.63
2022-10-01T07:19:39.688Z,99609.53
2022-10-01T07:22:11.049Z,99607.84
2022-10-01T07:24:40.999Z,99600.22
2022-10-01T07:27:11.932Z,99578.06
2022-10-01T07:29:43.153Z,99581.50
2022-10-01T07:32:13.105Z,99612.13
2022-10-01T07:34:46.563Z,99618.94
2022-10-01T07:37:16.396Z,99616.41
2022-10-01T07:39:50.071Z,99607.00
2022-10-01T07:42:21.551Z,99590.00
2022-10-01T07:44:52.414Z,99615.53
2022-10-01T07:47:22.311Z,99601.09
2022-10-01T07:49:56.642Z,99616.41
2022-10-01T07:52:26.552Z,99590.03
2022-10-01T07:54:57.394Z,99625.81
2022-10-01T07:57:29.242Z,99633.50
2022-10-01T07:59:59.035Z,99590.97
2022-10-01T08:02:29.959Z,99586.72
2022-10-01T08:05:27.783Z,99629.25
2022-10-01T08:08:01.351Z,99634.34
2022-10-01T08:10:36.688Z,99637.75
2022-10-01T08:13:14.484Z,99634.38
2022-10-01T08:15:45.042Z,99600.31
2022-10-01T08:18:16.621Z,99643.75
2022-10-01T08:20:49.069Z,99650.53
2022-10-01T08:23:19.917Z,99640.31
2022-10-01T08:25:50.150Z,99639.47
2022-10-01T08:28:20.229Z,99652.25
2022-10-01T08:30:50.064Z,99651.38
2022-10-01T08:33:20.972Z,99619.06
2022-10-01T08:35:53.447Z,99662.47
2022-10-01T08:38:25.132Z,99644.56
2022-10-01T08:40:56.266Z,99660.72
2022-10-01T08:43:36.475Z,99661.59
2022-10-01T08:46:14.144Z,99661.59
2022-10-01T08:48:57.399Z,99653.06
2022-10-01T08:51:36.410Z,99676.91
2022-10-01T08:54:13.076Z,99673.47
2022-10-01T08:56:48.096Z,99661.53
2022-10-01T08:59:42.537Z,99683.72
2022-10-01T09:02:22.187Z,99686.22
2022-10-01T09:05:00.325Z,99669.19
2022-10-01T09:07:49.654Z,99641.13
2022-10-01T09:10:30.654Z,99668.38
2022-10-01T09:13:18.727Z,99647.94
2022-10-01T09:15:55.244Z,99675.13
2022-10-01T09:18:39.800Z,99662.31
2022-10-01T09:21:20.972Z,99635.06
2022-10-01T09:24:05.891Z,99618.88
2022-10-01T09:26:38.155Z,99675.00
2022-10-01T09:29:17.177Z,99674.91
2022-10-01T09:31:52.250Z,99670.53
2022-10-01T09:34:31.634Z,99637.38
2022-10-01T09:37:14.765Z,99648.38
2022-10-01T09:39:57.047Z,99673.13
2022-10-01T09:42:30.487Z,99655.22
2022-10-01T09:45:01.028Z,99681.56
2022-10-01T09:47:31.780Z,99662.81
2022-10-01T09:50:06.522Z,99652.56
2022-10-01T09:52:39.939Z,99681.53
2022-10-01T09:55:27.296Z,99670.34
2022-10-01T09:58:05.984Z,99687.03
2022-10-01T10:00:39.442Z,99655.41
2022-10-01T10:03:13.314Z,99692.88
2022-10-01T10:05:49.591Z,99699.59
2022-10-01T10:08:28.419Z,99677.41
2022-10-01T10:11:07.751Z,99705.47
2022-10-01T10:13:42.299Z,99684.31
2022-10-01T10:16:21.989Z,99687.84
2022-10-01T10:18:54.122Z,99704.94
2022-10-01T10:21:27.611Z,99697.19
2022-10-01T10:24:00.651Z,99680.91
2022-10-01T10:26:36.178Z,99706.50
2022-10-01T10:29:08.777Z,99717.66
2022-10-01T10:31:44.560Z,99705.63
2022-10-01T10:34:19.041Z,99699.59
2022-10-01T10:36:49.931Z,99719.06
2022-10-01T10:39:24.507Z,99720.81
2022-10-01T10:41:57.897Z,99735.25
2022-10-01T10:44:32.016Z,99708.59
2022-10-01T10:47:04.740Z,99717.97
2022-10-01T10:49:38.132Z,99730.56
2022-10-01T10:52:23.754Z,99725.31
2022-10-01T10:54:55.540Z,99723.59
2022-10-01T10:57:31.244Z,99725.38
2022-10-01T11:00:03.346Z,99737.16
2022-10-01T11:02:37.349Z,99744.72
2022-10-01T11:05:20.683Z,99732.56
2022-10-01T11:07:55.866Z,99729.88
2022-10-01T11:10:36.621Z,99692.34
2022-10-01T11:13:26.750Z,99751.22
2022-10-01T11:16:20.554Z,99742.72
2022-10-01T11:19:07.815Z,99737.44
2022-10-01T11:21:53.698Z,99740.63
2022-10-01T11:24:43.601Z,99741.94
2022-10-01T11:27:24.409Z,99741.56
2022-10-01T11:30:04.555Z,99708.31
2022-10-01T11:32:41.781Z,99724.16
2022-10-01T11:35:29.590Z,99709.13
2022-10-01T11:38:22.326Z,99748.34
2022-10-01T12:48:10.796Z,99760.09
2022-10-01T12:50:52.634Z,99765.59
2022-10-01T12:53:34.457Z,99760.25
2022-10-01T12:56:21.640Z,99761.00
2022-10-01T12:59:14.678Z,99765.09
2022-10-01T13:01:56.723Z,99752.13
2022-10-01T13:04:40.426Z,99751.31
2022-10-01T13:07:36.552Z,99753.72
2022-10-01T13:10:23.215Z,99744.47
2022-10-01T13:13:06.400Z,99750.06
2022-10-01T13:15:40.883Z,99762.91
2022-10-01T13:18:29.300Z,99756.66
2022-10-01T13:21:08.395Z,99768.72
2022-10-01T13:23:50.621Z,99786.78
2022-10-01T13:26:29.277Z,99806.00
2022-10-01T13:29:11.778Z,99810.66
2022-10-01T13:31:56.839Z,99859.72
2022-10-01T13:34:39.263Z,99909.59
2022-10-01T13:37:16.685Z,99952.28
2022-10-01T13:39:49.996Z,99825.81
2022-10-01T13:42:27.534Z,99921.28
2022-10-01T13:45:00.927Z,99917.09
2022-10-01T13:47:30.833Z,99877.03
2022-10-01T13:50:06.517Z,99893.19
2022-10-01T13:52:37.851Z,99906.03
2022-10-01T13:55:28.757Z,99878.81
2022-10-01T13:58:06.559Z,99902.63
2022-10-01T14:00:37.869Z,99906.03
2022-10-01T14:03:29.613Z,99921.38
2022-10-01T14:06:01.516Z,99883.06
2022-10-01T14:08:37.250Z,99902.72
2022-10-01T14:11:26.530Z,99930.84
2022-10-01T14:14:11.610Z,99942.78
2022-10-01T14:16:45.166Z,99961.50
2022-10-01T14:19:22.278Z,99935.88
2022-10-01T14:22:12.897Z,99955.44
2022-10-01T14:24:57.737Z,99896.63
2022-10-01T14:27:35.892Z,99954.63
2022-10-01T14:30:13.578Z,99950.44
2022-10-01T14:33:17.765Z,99952.94
2022-10-01T14:35:58.785Z,99956.41
2022-10-01T14:38:28.684Z,99912.09
2022-10-01T14:40:58.523Z,99959.81
2022-10-01T14:43:35.659Z,99953.03
2022-10-01T14:46:08.265Z,99930.84
2022-10-01T14:48:40.404Z,99967.50
2022-10-01T14:51:26.092Z,99964.03
2022-10-01T14:53:59.105Z,99973.47
2022-10-01T14:56:31.360Z,99958.84
2022-10-01T14:59:07.345Z,99952.84
2022-10-01T15:01:39.082Z,99928.19
2022-10-01T15:04:17.278Z,99936.75
2022-10-01T15:06:48.079Z,99963.06
2022-10-01T15:09:20.600Z,99962.19
2022-10-01T15:11:53.623Z,99972.44
2022-10-01T15:14:28.277Z,99939.22
2022-10-01T15:16:59.190Z,99970.81
2022-10-01T15:19:29.070Z,99979.34
2022-10-01T15:22:02.115Z,99986.97
2022-10-01T15:24:40.644Z,99994.63
2022-10-01T15:27:12.229Z,99995.56
2022-10-01T15:29:46.405Z,99961.38
2022-10-01T15:32:21.237Z,99981.78
2022-10-01T15:34:56.512Z,100009.84
2022-10-01T15:37:29.749Z,100005.56
2022-10-01T15:40:02.537Z,100020.94
2022-10-01T15:42:35.659Z,100021.84
2022-10-01T15:45:25.856Z,100016.72
2022-10-01T15:47:57.167Z,100027.00
2022-10-01T15:50:32.417Z,100037.28
2022-10-01T15:53:10.097Z,100024.50
2022-10-01T15:55:44.838Z,100033.06
2022-10-01T15:58:18.230Z,100035.63
2022-10-01T16:01:03.400Z,100044.97
2022-10-01T16:03:37.534Z,100044.13
2022-10-01T16:06:19.933Z,100061.19
2022-10-01T16:09:02.655Z,100064.56
2022-10-01T16:11:36.450Z,100073.97
2022-10-01T16:14:25.855Z,100062.06
2022-10-01T16:17:28.110Z,100085.13
2022-10-01T16:20:03.215Z,100088.53
2022-10-01T16:22:34.469Z,100087.72
2022-10-01T16:25:07.261Z,100109.06
2022-10-01T16:27:46.754Z,100125.34
2022-10-01T16:30:23.686Z,100135.63
2022-10-01T16:32:56.844Z,100133.03
2022-10-01T16:35:28.530Z,100147.59
2022-10-01T16:37:59.980Z,100126.22
2022-10-01T16:40:32.757Z,100156.06
2022-10-01T16:43:03.374Z,100144.16
2022-10-01T16:45:39.307Z,100155.22
2022-10-01T16:48:16.613Z,100163.75
2022-10-01T17:19:06.897Z,100177.69
2022-10-01T17:21:37.618Z,100176.81
2022-10-01T17:24:10.748Z,100187.09
2022-10-01T17:26:43.288Z,100201.59
2022-10-01T17:29:14.563Z,100201.63
2022-10-01T17:31:53.266Z,100228.09
2022-10-01T17:34:27.152Z,100232.38
2022-10-01T17:36:59.862Z,100239.22
2022-10-01T17:39:34.081Z,100223.81
2022-10-01T17:42:04.963Z,100258.88
2022-10-01T17:44:35.729Z,100243.50
2022-10-01T17:47:06.946Z,100258.88
2022-10-01T17:49:40.394Z,100273.38
2022-10-01T17:52:11.222Z,100284.50
2022-10-01T17:54:42.048Z,100288.78
2022-10-01T17:57:13.885Z,100269.13
2022-10-01T17:59:44.790Z,100281.97
2022-10-01T18:02:39.912Z,100284.50
2022-10-01T18:05:17.288Z,100309.28
2022-10-01T18:07:48.077Z,100289.63
2022-10-01T18:10:18.824Z,100302.47
2022-10-01T18:12:49.520Z,100296.47
2022-10-01T18:15:22.657Z,100303.31
2022-10-01T18:18:38.141Z,100317.00
2022-10-01T18:20:46.594Z,100313.50
2022-10-01T18:23:17.492Z,100292.09
2022-10-01T18:25:53.226Z,100314.31
2022-10-01T18:28:24.746Z,100281.78
2022-10-01T18:31:12.296Z,100328.88
2022-10-01T18:33:47.344Z,100321.94
2022-10-01T18:36:30.029Z,100344.13
2022-10-01T18:39:09.325Z,100333.78
2022-10-01T18:41:41.181Z,100293.50
2022-10-01T18:44:15.734Z,100341.41
2022-10-01T18:47:12.816Z,100347.41
2022-10-01T18:50:10.777Z,100343.03
2022-10-01T18:52:54.116Z,100280.44
2022-10-01T18:56:05.546Z,100352.28
2022-10-01T18:59:01.673Z,100361.59
2022-10-01T19:01:41.567Z,100309.16
2022-10-01T19:04:31.295Z,100374.09
2022-10-01T19:07:15.391Z,100339.72
2022-10-01T19:10:01.865Z,100367.22
2022-10-01T19:12:44.210Z,100380.88
2022-10-01T19:15:25.304Z,100365.50
2022-10-01T19:18:06.274Z,100391.25
2022-10-01T19:20:47.734Z,100406.66
2022-10-01T19:23:32.957Z,100410.22
2022-10-01T19:26:14.780Z,100416.25
2022-10-01T19:28:56.462Z,100406.81
2022-10-01T19:31:36.219Z,100423.84
2022-10-01T19:34:12.962Z,100428.94
2022-10-01T19:36:51.476Z,100416.84
2022-10-01T19:39:25.779Z,100380.72
2022-10-01T19:42:04.984Z,100414.94
2022-10-01T19:44:42.913Z,100401.22
2022-10-01T19:47:27.783Z,100420.91
2022-10-01T19:50:06.484Z,100401.97
2022-10-01T19:52:45.740Z,100392.53
2022-10-01T19:55:19.666Z,100454.97
2022-10-01T19:57:53.477Z,100438.66
2022-10-01T20:00:26.000Z,100456.63
2022-10-01T20:03:09.771Z,100455.78
2022-10-01T20:05:46.899Z,100465.13
2022-10-01T20:08:28.990Z,100452.22
2022-10-01T20:11:05.055Z,100433.38
2022-10-01T20:13:53.727Z,100463.50
2022-10-01T20:16:30.017Z,100473.41
2022-10-01T20:19:11.230Z,100477.75
2022-10-01T20:21:53.175Z,100487.16
2022-10-01T20:24:39.128Z,100487.97
2022-10-01T20:27:21.204Z,100455.31
2022-10-01T20:30:04.846Z,100510.94
2022-10-01T20:32:39.525Z,100498.09
2022-10-01T20:35:21.275Z,100474.06
2022-10-01T20:38:00.948Z,100498.09
2022-10-01T20:40:34.834Z,100503.19
2022-10-01T20:43:08.866Z,100514.22
2022-10-01T20:45:43.392Z,100522.00
2022-10-01T20:48:19.460Z,100546.91
2022-10-01T20:50:53.979Z,100514.19
2022-10-01T20:53:35.879Z,100526.13
2022-10-01T20:56:12.973Z,100534.81
2022-10-01T20:58:49.175Z,100516.81
2022-10-01T21:01:24.988Z,100550.38
2022-10-01T21:04:00.069Z,100544.41
2022-10-01T21:06:35.805Z,100548.81
2022-10-01T21:09:15.179Z,100550.41
2022-10-01T21:11:48.905Z,100535.88
2022-10-01T21:14:24.980Z,100530.75
2022-10-01T21:17:18.655Z,100561.66
2022-10-01T21:20:04.715Z,100563.41
2022-10-01T21:22:51.338Z,100547.16
2022-10-01T21:25:27.756Z,100559.66
2022-10-01T21:28:16.035Z,100572.38
2022-10-01T21:31:01.990Z,100540.53
2022-10-01T21:33:41.391Z,100556.88
2022-10-01T21:36:19.494Z,100570.38
2022-10-01T21:38:54.710Z,100579.06
2022-10-01T21:41:34.685Z,100553.25
2022-10-01T21:44:20.873Z,100559.19
2022-10-01T21:46:58.151Z,100562.59
2022-10-01T21:49:42.654Z,100581.34
2022-10-01T21:52:25.774Z,100567.50
2022-10-01T21:55:18.068Z,100585.53
2022-10-01T21:58:08.391Z,100589.66
2022-10-01T22:00:38.413Z,100589.59
2022-10-01T22:03:20.206Z,100589.63
2022-10-01T22:05:59.582Z,100594.72
2022-10-01T22:08:50.053Z,100573.28
2022-10-01T22:11:25.559Z,100599.75
2022-10-01T22:14:01.502Z,100590.41
2022-10-01T22:16:36.353Z,100606.47
2022-10-01T22:19:12.476Z,100619.41
2022-10-01T22:21:47.561Z,100597.03
2022-10-01T22:24:21.399Z,100620.03
2022-10-01T22:26:56.002Z,100589.22
2022-10-01T22:29:29.907Z,100618.34
2022-10-01T22:32:03.863Z,100620.88
2022-10-01T22:34:37.832Z,100625.22
2022-10-01T22:37:14.350Z,100633.72
2022-10-01T22:39:50.347Z,100622.44
2022-10-01T22:42:25.448Z,100625.84
2022-10-01T22:44:56.095Z,100577.81
2022-10-01T22:47:47.421Z,100633.59
2022-10-01T22:50:32.367Z,100504.66
2022-10-01T22:53:16.512Z,100622.44
2022-10-01T22:55:55.452Z,100645.44
2022-10-01T22:58:42.107Z,100635.13
2022-10-01T23:01:25.099Z,100641.19
2022-10-01T23:04:09.460Z,100648.09
2022-10-01T23:06:44.938Z,100615.38
2022-10-01T23:09:22.649Z,100643.81
2022-10-01T23:11:59.665Z,100631.81
2022-10-01T23:14:58.666Z,100647.94
2022-10-01T23:17:33.863Z,100644.44
2022-10-01T23:20:19.039Z,100643.75
2022-10-01T23:23:05.937Z,100653.16
2022-10-01T23:25:51.631Z,100658.22
2022-10-01T23:28:32.162Z,100623.03
2022-10-01T23:31:13.259Z,100656.44
2022-10-01T23:33:56.805Z,100642.69
2022-10-01T23:36:37.013Z,100664.81
2022-10-01T23:39:28.315Z,100642.47
2022-10-01T23:42:06.781Z,100634.91
2022-10-01T23:44:42.006Z,100653.03
2022-10-01T23:47:19.984Z,100648.59
2022-10-01T23:49:56.028Z,100669.47
2022-10-01T23:52:33.285Z,100666.06
2022-10-01T23:55:19.478Z,100669.78
2022-10-01T23:58:00.939Z,100669.78
